sensor_id;sensor_type;location;lat;lon;timestamp;temperature;humidity
21417;DHT22;10869;52.238;10.716;2023-04-25T03:10:11;6.90;99.90
21417;DHT22;10869;52.238;10.716;2023-04-25T03:29:01;6.80;99.90
21417;DHT22;10869;52.238;10.716;2023-04-25T03:35:42;6.80;99.90
21417;DHT22;10869;52.238;10.716;2023-04-25T04:07:55;6.60;99.90
21417;DHT22;10869;52.238;10.716;2023-04-25T04:10:28;6.50;99.90
21417;DHT22;10869;52.238;10.716;2023-04-25T04:13:18;6.40;99.90
21417;DHT22;10869;52.238;10.716;2023-04-25T04:15:55;6.30;99.90
21417;DHT22;10869;52.238;10.716;2023-04-25T04:18:27;6.30;99.90
21417;DHT22;10869;52.238;10.716;2023-04-25T04:20:55;6.40;99.90
21417;DHT22;10869;52.238;10.716;2023-04-25T04:23:30;6.30;99.90
21417;DHT22;10869;52.238;10.716;2023-04-25T04:26:03;6.30;99.90
21417;DHT22;10869;52.238;10.716;2023-04-25T04:28:36;6.20;99.90
21417;DHT22;10869;52.238;10.716;2023-04-25T04:31:10;6.20;99.90
21417;DHT22;10869;52.238;10.716;2023-04-25T04:33:46;6.20;99.90
21417;DHT22;10869;52.238;10.716;2023-04-25T04:36:12;6.20;99.90
21417;DHT22;10869;52.238;10.716;2023-04-25T04:38:41;6.10;99.90
21417;DHT22;10869;52.238;10.716;2023-04-25T04:41:14;6.10;99.90
21417;DHT22;10869;52.238;10.716;2023-04-25T04:43:46;6.10;99.90
21417;DHT22;10869;52.238;10.716;2023-04-25T04:46:38;6.10;99.90
21417;DHT22;10869;52.238;10.716;2023-04-25T04:52:28;6.30;99.90
21417;DHT22;10869;52.238;10.716;2023-04-25T04:54:58;6.30;99.90
21417;DHT22;10869;52.238;10.716;2023-04-25T04:57:24;6.30;99.90
21417;DHT22;10869;52.238;10.716;2023-04-25T04:59:59;6.40;99.90
21417;DHT22;10869;52.238;10.716;2023-04-25T05:02:38;6.40;99.90
21417;DHT22;10869;52.238;10.716;2023-04-25T05:05:06;6.50;99.90
21417;DHT22;10869;52.238;10.716;2023-04-25T05:07:38;6.50;99.90
21417;DHT22;10869;52.238;10.716;2023-04-25T05:10:08;6.50;99.90
21417;DHT22;10869;52.238;10.716;2023-04-25T05:12:40;6.60;99.90
21417;DHT22;10869;52.238;10.716;2023-04-25T05:15:13;6.70;99.90
21417;DHT22;10869;52.238;10.716;2023-04-25T05:17:45;6.80;99.90
21417;DHT22;10869;52.238;10.716;2023-04-25T05:20:12;6.80;99.90
21417;DHT22;10869;52.238;10.716;2023-04-25T05:22:39;6.90;99.90
21417;DHT22;10869;52.238;10.716;2023-04-25T05:25:08;7.00;99.90
21417;DHT22;10869;52.238;10.716;2023-04-25T05:27:34;7.00;99.90
21417;DHT22;10869;52.238;10.716;2023-04-25T05:33:22;7.20;99.90
21417;DHT22;10869;52.238;10.716;2023-04-25T05:35:48;7.30;99.90
21417;DHT22;10869;52.238;10.716;2023-04-25T05:38:14;7.40;99.90
21417;DHT22;10869;52.238;10.716;2023-04-25T05:40:40;7.40;99.90
21417;DHT22;10869;52.238;10.716;2023-04-25T05:43:06;7.40;99.90
21417;DHT22;10869;52.238;10.716;2023-04-25T05:45:32;7.40;99.90
21417;DHT22;10869;52.238;10.716;2023-04-25T05:47:58;7.40;99.90
21417;DHT22;10869;52.238;10.716;2023-04-25T05:50:24;7.40;99.90
21417;DHT22;10869;52.238;10.716;2023-04-25T05:52:50;7.30;99.90
21417;DHT22;10869;52.238;10.716;2023-04-25T05:55:16;7.30;99.90
21417;DHT22;10869;52.238;10.716;2023-04-25T05:57:41;7.20;99.90
21417;DHT22;10869;52.238;10.716;2023-04-25T06:00:11;7.30;99.90
21417;DHT22;10869;52.238;10.716;2023-04-25T06:02:37;7.50;99.90
21417;DHT22;10869;52.238;10.716;2023-04-25T06:05:03;7.70;99.90
21417;DHT22;10869;52.238;10.716;2023-04-25T06:10:51;7.70;99.90
21417;DHT22;10869;52.238;10.716;2023-04-25T06:16:39;7.90;99.90
21417;DHT22;10869;52.238;10.716;2023-04-25T06:22:26;8.00;99.90
21417;DHT22;10869;52.238;10.716;2023-04-25T06:24:52;7.90;99.90
21417;DHT22;10869;52.238;10.716;2023-04-25T06:27:18;8.00;99.90
21417;DHT22;10869;52.238;10.716;2023-04-25T06:29:43;8.00;99.90
21417;DHT22;10869;52.238;10.716;2023-04-25T06:32:09;8.00;99.90
21417;DHT22;10869;52.238;10.716;2023-04-25T06:34:35;8.20;99.90
21417;DHT22;10869;52.238;10.716;2023-04-25T06:40:23;8.50;99.90
21417;DHT22;10869;52.238;10.716;2023-04-25T06:42:48;8.50;99.90
21417;DHT22;10869;52.238;10.716;2023-04-25T06:45:14;8.80;99.90
21417;DHT22;10869;52.238;10.716;2023-04-25T06:47:40;8.80;99.90
21417;DHT22;10869;52.238;10.716;2023-04-25T06:50:06;8.90;99.90
21417;DHT22;10869;52.238;10.716;2023-04-25T06:52:32;8.90;99.90
21417;DHT22;10869;52.238;10.716;2023-04-25T06:58:20;9.30;99.90
21417;DHT22;10869;52.238;10.716;2023-04-25T07:00:45;9.20;99.90
21417;DHT22;10869;52.238;10.716;2023-04-25T07:03:11;9.10;99.90
21417;DHT22;10869;52.238;10.716;2023-04-25T07:05:37;9.10;99.90
21417;DHT22;10869;52.238;10.716;2023-04-25T07:08:03;9.00;99.90
21417;DHT22;10869;52.238;10.716;2023-04-25T07:10:29;9.00;99.90
21417;DHT22;10869;52.238;10.716;2023-04-25T07:12:55;9.00;99.90
21417;DHT22;10869;52.238;10.716;2023-04-25T07:15:21;9.10;99.90
21417;DHT22;10869;52.238;10.716;2023-04-25T07:17:55;9.40;99.90
21417;DHT22;10869;52.238;10.716;2023-04-25T07:20:27;9.80;99.90
21417;DHT22;10869;52.238;10.716;2023-04-25T07:23:07;10.20;99.90
21417;DHT22;10869;52.238;10.716;2023-04-25T07:25:39;10.40;99.90
21417;DHT22;10869;52.238;10.716;2023-04-25T07:28:26;10.10;99.90
21417;DHT22;10869;52.238;10.716;2023-04-25T07:36:03;9.90;99.90
21417;DHT22;10869;52.238;10.716;2023-04-25T07:38:32;10.20;99.90
21417;DHT22;10869;52.238;10.716;2023-04-25T07:41:40;10.20;99.90
21417;DHT22;10869;52.238;10.716;2023-04-25T07:47:28;10.20;99.90
21417;DHT22;10869;52.238;10.716;2023-04-25T07:49:54;10.30;99.90
21417;DHT22;10869;52.238;10.716;2023-04-25T07:52:20;10.50;99.90
21417;DHT22;10869;52.238;10.716;2023-04-25T09:21:11;9.80;99.90
21417;DHT22;10869;52.238;10.716;2023-04-25T09:23:56;10.00;99.90
21417;DHT22;10869;52.238;10.716;2023-04-25T09:26:26;10.30;99.90
21417;DHT22;10869;52.238;10.716;2023-04-25T09:32:27;10.30;98.90
21417;DHT22;10869;52.238;10.716;2023-04-25T09:48:04;11.10;96.90
21417;DHT22;10869;52.238;10.716;2023-04-25T09:50:45;10.70;97.20
21417;DHT22;10869;52.238;10.716;2023-04-25T09:58:30;10.40;96.50
21417;DHT22;10869;52.238;10.716;2023-04-25T10:01:02;10.40;97.00
21417;DHT22;10869;52.238;10.716;2023-04-25T10:03:36;10.50;96.60
21417;DHT22;10869;52.238;10.716;2023-04-25T10:11:44;10.50;96.70
21417;DHT22;10869;52.238;10.716;2023-04-25T10:18:05;10.30;96.50
21417;DHT22;10869;52.238;10.716;2023-04-25T10:20:42;10.20;96.70
21417;DHT22;10869;52.238;10.716;2023-04-25T10:23:13;10.10;96.90
21417;DHT22;10869;52.238;10.716;2023-04-25T10:33:38;10.20;97.60
21417;DHT22;10869;52.238;10.716;2023-04-25T10:36:21;10.50;97.60
21417;DHT22;10869;52.238;10.716;2023-04-25T10:38:55;10.90;97.20
21417;DHT22;10869;52.238;10.716;2023-04-25T10:42:01;11.10;96.20
21417;DHT22;10869;52.238;10.716;2023-04-25T10:44:47;11.00;96.10
21417;DHT22;10869;52.238;10.716;2023-04-25T10:47:36;10.80;96.50
21417;DHT22;10869;52.238;10.716;2023-04-25T10:50:11;10.90;96.50
21417;DHT22;10869;52.238;10.716;2023-04-25T10:52:48;11.00;95.80
21417;DHT22;10869;52.238;10.716;2023-04-25T10:55:18;10.80;95.90
21417;DHT22;10869;52.238;10.716;2023-04-25T10:57:46;10.60;96.30
21417;DHT22;10869;52.238;10.716;2023-04-25T11:00:23;10.40;96.40
21417;DHT22;10869;52.238;10.716;2023-04-25T11:02:59;10.70;96.60
21417;DHT22;10869;52.238;10.716;2023-04-25T11:05:38;11.40;96.30
21417;DHT22;10869;52.238;10.716;2023-04-25T11:08:27;11.60;95.90
21417;DHT22;10869;52.238;10.716;2023-04-25T11:11:31;11.50;95.40
21417;DHT22;10869;52.238;10.716;2023-04-25T11:14:10;11.30;95.30
21417;DHT22;10869;52.238;10.716;2023-04-25T11:16:36;11.20;95.70
21417;DHT22;10869;52.238;10.716;2023-04-25T11:19:03;11.10;95.10
21417;DHT22;10869;52.238;10.716;2023-04-25T11:21:30;11.10;95.50
21417;DHT22;10869;52.238;10.716;2023-04-25T11:24:03;11.10;94.40
21417;DHT22;10869;52.238;10.716;2023-04-25T11:26:34;11.10;93.60
21417;DHT22;10869;52.238;10.716;2023-04-25T11:29:03;11.10;93.80
21417;DHT22;10869;52.238;10.716;2023-04-25T12:03:17;9.50;95.60
21417;DHT22;10869;52.238;10.716;2023-04-25T12:06:01;9.20;96.60
21417;DHT22;10869;52.238;10.716;2023-04-25T12:11:54;9.50;97.10
21417;DHT22;10869;52.238;10.716;2023-04-25T12:20:21;10.60;97.10
21417;DHT22;10869;52.238;10.716;2023-04-25T12:22:50;11.10;97.50
21417;DHT22;10869;52.238;10.716;2023-04-25T12:25:41;11.30;97.00
21417;DHT22;10869;52.238;10.716;2023-04-25T12:28:18;11.60;96.70
21417;DHT22;10869;52.238;10.716;2023-04-25T12:34:11;12.30;95.70
21417;DHT22;10869;52.238;10.716;2023-04-25T12:39:59;11.80;93.10
21417;DHT22;10869;52.238;10.716;2023-04-25T12:42:25;11.50;92.90
21417;DHT22;10869;52.238;10.716;2023-04-25T12:44:51;11.60;92.50
21417;DHT22;10869;52.238;10.716;2023-04-25T12:47:17;11.60;92.80
21417;DHT22;10869;52.238;10.716;2023-04-25T12:49:43;11.60;93.10
21417;DHT22;10869;52.238;10.716;2023-04-25T12:52:10;11.60;93.50
21417;DHT22;10869;52.238;10.716;2023-04-25T12:54:35;11.70;93.20
21417;DHT22;10869;52.238;10.716;2023-04-25T12:57:03;11.60;93.40
21417;DHT22;10869;52.238;10.716;2023-04-25T12:59:28;11.50;92.90
21417;DHT22;10869;52.238;10.716;2023-04-25T13:01:56;11.30;92.00
21417;DHT22;10869;52.238;10.716;2023-04-25T13:04:22;11.00;92.30
21417;DHT22;10869;52.238;10.716;2023-04-25T13:06:47;10.90;92.30
21417;DHT22;10869;52.238;10.716;2023-04-25T13:09:13;10.80;92.80
21417;DHT22;10869;52.238;10.716;2023-04-25T13:11:40;10.70;93.40
21417;DHT22;10869;52.238;10.716;2023-04-25T13:14:09;10.60;93.70
21417;DHT22;10869;52.238;10.716;2023-04-25T13:16:35;10.50;94.20
21417;DHT22;10869;52.238;10.716;2023-04-25T13:19:01;10.40;94.40
21417;DHT22;10869;52.238;10.716;2023-04-25T13:21:30;10.30;94.00
21417;DHT22;10869;52.238;10.716;2023-04-25T13:23:57;10.30;94.30
21417;DHT22;10869;52.238;10.716;2023-04-25T13:26:23;10.40;94.60
21417;DHT22;10869;52.238;10.716;2023-04-25T13:28:49;10.80;94.60
21417;DHT22;10869;52.238;10.716;2023-04-25T13:31:15;11.30;94.20
21417;DHT22;10869;52.238;10.716;2023-04-25T13:33:40;11.60;94.10
21417;DHT22;10869;52.238;10.716;2023-04-25T13:36:07;11.80;93.90
21417;DHT22;10869;52.238;10.716;2023-04-25T13:38:33;12.00;92.50
21417;DHT22;10869;52.238;10.716;2023-04-25T13:40:59;12.10;92.90
21417;DHT22;10869;52.238;10.716;2023-04-25T13:43:26;12.30;92.60
21417;DHT22;10869;52.238;10.716;2023-04-25T13:45:52;12.40;92.60
21417;DHT22;10869;52.238;10.716;2023-04-25T13:48:18;12.40;92.70
21417;DHT22;10869;52.238;10.716;2023-04-25T13:50:45;12.40;92.80
21417;DHT22;10869;52.238;10.716;2023-04-25T13:53:11;12.20;93.30
21417;DHT22;10869;52.238;10.716;2023-04-25T13:55:37;12.00;93.60
21417;DHT22;10869;52.238;10.716;2023-04-25T13:58:04;12.20;94.10
21417;DHT22;10869;52.238;10.716;2023-04-25T14:00:35;12.30;93.80
21417;DHT22;10869;52.238;10.716;2023-04-25T14:03:01;12.20;93.70
21417;DHT22;10869;52.238;10.716;2023-04-25T14:05:30;12.20;93.20
21417;DHT22;10869;52.238;10.716;2023-04-25T14:07:56;12.20;93.00
21417;DHT22;10869;52.238;10.716;2023-04-25T14:10:27;12.10;92.90
21417;DHT22;10869;52.238;10.716;2023-04-25T14:13:00;12.00;92.90
21417;DHT22;10869;52.238;10.716;2023-04-25T14:15:26;11.80;92.60
21417;DHT22;10869;52.238;10.716;2023-04-25T14:17:52;11.70;92.60
21417;DHT22;10869;52.238;10.716;2023-04-25T14:20:18;11.60;92.40
21417;DHT22;10869;52.238;10.716;2023-04-25T14:22:49;11.90;91.50
21417;DHT22;10869;52.238;10.716;2023-04-25T14:25:17;11.80;90.30
21417;DHT22;10869;52.238;10.716;2023-04-25T14:27:43;11.50;89.20
21417;DHT22;10869;52.238;10.716;2023-04-25T14:30:12;11.20;89.40
21417;DHT22;10869;52.238;10.716;2023-04-25T14:32:38;10.90;90.10
21417;DHT22;10869;52.238;10.716;2023-04-25T14:35:04;10.80;90.10
21417;DHT22;10869;52.238;10.716;2023-04-25T14:37:31;10.70;90.30
21417;DHT22;10869;52.238;10.716;2023-04-25T14:39:56;10.70;91.10
21417;DHT22;10869;52.238;10.716;2023-04-25T14:42:22;10.80;91.40
21417;DHT22;10869;52.238;10.716;2023-04-25T14:44:48;11.00;91.50
21417;DHT22;10869;52.238;10.716;2023-04-25T14:47:14;11.10;91.80
21417;DHT22;10869;52.238;10.716;2023-04-25T14:49:41;11.20;91.50
21417;DHT22;10869;52.238;10.716;2023-04-25T14:52:07;11.40;91.70
21417;DHT22;10869;52.238;10.716;2023-04-25T14:54:33;11.50;91.80
21417;DHT22;10869;52.238;10.716;2023-04-25T14:56:58;11.60;92.30
21417;DHT22;10869;52.238;10.716;2023-04-25T14:59:24;11.70;92.00
21417;DHT22;10869;52.238;10.716;2023-04-25T15:01:50;11.90;91.70
21417;DHT22;10869;52.238;10.716;2023-04-25T15:04:17;12.10;90.70
21417;DHT22;10869;52.238;10.716;2023-04-25T15:06:43;12.00;91.80
21417;DHT22;10869;52.238;10.716;2023-04-25T15:09:09;11.80;92.40
21417;DHT22;10869;52.238;10.716;2023-04-25T15:11:36;11.60;92.70
21417;DHT22;10869;52.238;10.716;2023-04-25T15:14:02;11.40;93.60
21417;DHT22;10869;52.238;10.716;2023-04-25T15:16:28;11.00;94.70
21417;DHT22;10869;52.238;10.716;2023-04-25T15:18:54;10.70;95.40
21417;DHT22;10869;52.238;10.716;2023-04-25T15:21:19;10.60;95.90
21417;DHT22;10869;52.238;10.716;2023-04-25T15:23:46;10.60;95.80
21417;DHT22;10869;52.238;10.716;2023-04-25T15:26:12;10.60;96.30
21417;DHT22;10869;52.238;10.716;2023-04-25T15:28:38;10.50;96.80
21417;DHT22;10869;52.238;10.716;2023-04-25T15:31:10;10.60;97.10
21417;DHT22;10869;52.238;10.716;2023-04-25T15:33:39;10.50;97.20
21417;DHT22;10869;52.238;10.716;2023-04-25T15:36:14;10.40;97.10
21417;DHT22;10869;52.238;10.716;2023-04-25T15:38:42;10.30;97.20
21417;DHT22;10869;52.238;10.716;2023-04-25T15:41:07;10.10;96.70
21417;DHT22;10869;52.238;10.716;2023-04-25T15:46:56;10.00;97.10
21417;DHT22;10869;52.238;10.716;2023-04-25T15:49:21;10.10;98.00
21417;DHT22;10869;52.238;10.716;2023-04-25T15:56:58;10.20;97.30
21417;DHT22;10869;52.238;10.716;2023-04-25T15:59:24;10.10;95.80
21417;DHT22;10869;52.238;10.716;2023-04-25T16:01:49;9.90;96.10
21417;DHT22;10869;52.238;10.716;2023-04-25T16:04:15;9.60;96.80
21417;DHT22;10869;52.238;10.716;2023-04-25T16:06:41;9.30;97.40
21417;DHT22;10869;52.238;10.716;2023-04-25T16:09:07;9.00;97.50
21417;DHT22;10869;52.238;10.716;2023-04-25T16:11:33;9.00;98.50
21417;DHT22;10869;52.238;10.716;2023-04-25T16:14:05;8.80;98.00
21417;DHT22;10869;52.238;10.716;2023-04-25T16:19:58;8.80;98.40
21417;DHT22;10869;52.238;10.716;2023-04-25T16:22:43;8.80;98.70
21417;DHT22;10869;52.238;10.716;2023-04-25T16:25:10;8.80;98.50
21417;DHT22;10869;52.238;10.716;2023-04-25T16:27:37;8.80;98.70
21417;DHT22;10869;52.238;10.716;2023-04-25T16:30:30;8.80;98.40
21417;DHT22;10869;52.238;10.716;2023-04-25T16:32:56;8.80;98.30
21417;DHT22;10869;52.238;10.716;2023-04-25T16:38:43;8.90;98.80
21417;DHT22;10869;52.238;10.716;2023-04-25T16:41:09;8.90;98.30
21417;DHT22;10869;52.238;10.716;2023-04-25T16:43:37;8.90;98.20
21417;DHT22;10869;52.238;10.716;2023-04-25T16:46:05;8.90;98.60
21417;DHT22;10869;52.238;10.716;2023-04-25T16:48:31;8.90;98.80
21417;DHT22;10869;52.238;10.716;2023-04-25T16:50:57;9.00;99.20
21417;DHT22;10869;52.238;10.716;2023-04-25T16:53:23;9.10;99.20
21417;DHT22;10869;52.238;10.716;2023-04-25T16:55:49;9.30;99.30
21417;DHT22;10869;52.238;10.716;2023-04-25T16:58:15;9.30;99.20
21417;DHT22;10869;52.238;10.716;2023-04-25T17:00:41;9.30;99.30
21417;DHT22;10869;52.238;10.716;2023-04-25T17:03:07;9.30;99.20
21417;DHT22;10869;52.238;10.716;2023-04-25T17:05:34;9.20;99.30
21417;DHT22;10869;52.238;10.716;2023-04-25T17:07:59;9.10;99.40
21417;DHT22;10869;52.238;10.716;2023-04-25T17:10:26;9.00;99.90
21417;DHT22;10869;52.238;10.716;2023-04-25T17:12:55;8.90;99.80
21417;DHT22;10869;52.238;10.716;2023-04-25T17:15:34;8.80;99.70
21417;DHT22;10869;52.238;10.716;2023-04-25T17:18:04;8.80;99.90
21417;DHT22;10869;52.238;10.716;2023-04-25T17:23:39;8.60;99.90
21417;DHT22;10869;52.238;10.716;2023-04-25T17:26:13;8.50;99.90
21417;DHT22;10869;52.238;10.716;2023-04-25T17:28:39;8.50;99.90
21417;DHT22;10869;52.238;10.716;2023-04-25T17:31:07;8.50;99.90
21417;DHT22;10869;52.238;10.716;2023-04-25T17:33:53;8.60;99.90
21417;DHT22;10869;52.238;10.716;2023-04-25T17:36:54;8.60;99.90
21417;DHT22;10869;52.238;10.716;2023-04-25T17:39:20;8.50;99.90
21417;DHT22;10869;52.238;10.716;2023-04-25T17:41:46;8.50;99.90
21417;DHT22;10869;52.238;10.716;2023-04-25T17:44:12;8.40;99.90
21417;DHT22;10869;52.238;10.716;2023-04-25T17:46:38;8.30;99.90
21417;DHT22;10869;52.238;10.716;2023-04-25T17:49:08;8.20;99.90
21417;DHT22;10869;52.238;10.716;2023-04-25T17:51:34;8.00;99.90
21417;DHT22;10869;52.238;10.716;2023-04-25T17:54:04;7.90;99.90
21417;DHT22;10869;52.238;10.716;2023-04-25T17:56:36;7.90;99.90
21417;DHT22;10869;52.238;10.716;2023-04-25T17:59:03;7.80;99.90
21417;DHT22;10869;52.238;10.716;2023-04-25T18:01:31;7.80;99.90
21417;DHT22;10869;52.238;10.716;2023-04-25T18:03:57;7.70;99.90
21417;DHT22;10869;52.238;10.716;2023-04-25T18:06:40;7.70;99.90
21417;DHT22;10869;52.238;10.716;2023-04-25T18:09:09;7.60;99.90
21417;DHT22;10869;52.238;10.716;2023-04-25T18:11:48;7.50;99.90
21417;DHT22;10869;52.238;10.716;2023-04-25T18:14:17;7.50;99.90
21417;DHT22;10869;52.238;10.716;2023-04-25T18:16:46;7.40;99.90
21417;DHT22;10869;52.238;10.716;2023-04-25T18:19:12;7.40;99.90
21417;DHT22;10869;52.238;10.716;2023-04-25T18:21:44;7.30;99.90
21417;DHT22;10869;52.238;10.716;2023-04-25T18:27:32;7.20;99.90
21417;DHT22;10869;52.238;10.716;2023-04-25T22:10:06;4.80;99.90
21417;DHT22;10869;52.238;10.716;2023-04-25T22:12:33;4.70;99.90
21417;DHT22;10869;52.238;10.716;2023-04-25T22:15:06;4.70;99.90
21417;DHT22;10869;52.238;10.716;2023-04-25T22:17:50;4.70;99.90
21417;DHT22;10869;52.238;10.716;2023-04-25T22:20:22;4.70;99.90
21417;DHT22;10869;52.238;10.716;2023-04-25T22:23:06;4.70;99.90
21417;DHT22;10869;52.238;10.716;2023-04-25T22:25:53;4.70;99.90
21417;DHT22;10869;52.238;10.716;2023-04-25T22:28:48;4.60;99.90
21417;DHT22;10869;52.238;10.716;2023-04-25T22:31:36;4.60;99.90
21417;DHT22;10869;52.238;10.716;2023-04-25T22:34:14;4.60;99.90
21417;DHT22;10869;52.238;10.716;2023-04-25T22:36:44;4.60;99.90
21417;DHT22;10869;52.238;10.716;2023-04-25T22:39:27;4.60;99.90
21417;DHT22;10869;52.238;10.716;2023-04-25T22:42:05;4.50;99.90
21417;DHT22;10869;52.238;10.716;2023-04-25T22:45:00;4.50;99.90
21417;DHT22;10869;52.238;10.716;2023-04-25T22:47:28;4.40;99.90
21417;DHT22;10869;52.238;10.716;2023-04-25T22:50:34;4.40;99.90
21417;DHT22;10869;52.238;10.716;2023-04-25T22:56:35;4.30;99.90
21417;DHT22;10869;52.238;10.716;2023-04-25T22:59:20;4.20;99.90
